createdAt,value
2017-07-22T16:08:01.400Z,8.53
2017-07-22T16:10:29.709Z,8.23
2017-07-22T16:12:57.961Z,7.10
2017-07-22T16:15:27.030Z,7.03
2017-07-22T16:17:55.285Z,7.07
2017-07-22T16:20:23.533Z,7.33
2017-07-22T16:22:51.822Z,8.27
2017-07-22T16:25:20.845Z,8.43
2017-07-22T16:27:49.094Z,6.83
2017-07-22T16:30:17.406Z,6.97
2017-07-22T16:32:45.694Z,8.93
2017-07-22T16:35:13.944Z,8.53
2017-07-22T16:37:42.982Z,7.07
2017-07-22T16:40:11.224Z,6.53
2017-07-22T16:42:39.510Z,7.63
2017-07-22T16:45:07.833Z,7.50
2017-07-22T16:47:36.117Z,6.20
2017-07-22T16:50:04.361Z,6.20
2017-07-22T16:52:32.670Z,6.50
2017-07-22T16:55:01.678Z,6.03
2017-07-22T16:57:29.925Z,6.73
2017-07-22T16:59:58.188Z,13.17
2017-07-22T17:02:26.441Z,6.33
2017-07-22T17:04:55.485Z,6.27
2017-07-22T17:07:23.764Z,7.20
2017-07-22T17:09:52.791Z,5.87
2017-07-22T17:12:21.064Z,7.40
2017-07-22T17:14:49.362Z,8.97
2017-07-22T17:17:18.393Z,5.87
2017-07-22T17:19:46.661Z,8.00
2017-07-22T17:22:14.933Z,6.50
2017-07-22T17:24:43.178Z,5.63
2017-07-22T17:27:11.454Z,7.80
2017-07-22T17:29:39.767Z,6.60
2017-07-22T17:32:08.051Z,6.73
2017-07-22T17:34:36.343Z,10.07
2017-07-22T17:37:04.628Z,7.10
2017-07-22T17:39:33.670Z,8.77
2017-07-22T17:42:01.920Z,9.30
2017-07-22T17:44:30.030Z,7.30
2017-07-22T17:46:58.305Z,11.60
2017-07-22T17:49:26.557Z,8.13
2017-07-22T17:51:54.857Z,9.23
2017-07-22T17:54:23.113Z,8.93
2017-07-22T17:56:51.397Z,9.17
2017-07-22T17:59:19.706Z,11.07
2017-07-22T18:01:47.961Z,11.30
2017-07-22T18:04:16.204Z,9.90
2017-07-22T18:06:44.507Z,13.67
2017-07-22T18:09:12.794Z,10.87
2017-07-22T18:11:41.045Z,10.37
2017-07-22T18:14:09.343Z,9.13
2017-07-22T18:16:38.367Z,12.63
2017-07-22T18:19:06.688Z,14.47
2017-07-22T18:21:34.972Z,10.00
2017-07-22T18:24:03.227Z,10.70
2017-07-22T18:26:31.505Z,11.40
2017-07-22T18:28:59.814Z,11.33
2017-07-22T18:31:28.828Z,13.43
2017-07-22T18:33:57.190Z,10.80
2017-07-22T18:36:25.457Z,10.33
2017-07-22T18:38:53.751Z,11.10
2017-07-22T18:41:22.048Z,10.83
2017-07-22T18:43:50.330Z,11.03
2017-07-22T18:46:18.580Z,13.70
2017-07-22T18:48:46.837Z,11.23
2017-07-22T18:51:15.146Z,13.17
2017-07-22T18:53:43.426Z,11.47
2017-07-22T18:56:12.466Z,12.07
2017-07-22T18:58:40.779Z,12.87
2017-07-22T19:01:09.796Z,14.83
2017-07-22T19:03:38.082Z,13.00
2017-07-22T19:06:06.352Z,12.10
2017-07-22T19:08:34.641Z,14.30
2017-07-22T19:11:02.940Z,18.47
2017-07-22T19:13:31.266Z,16.43
2017-07-22T19:15:59.512Z,12.53
2017-07-22T19:18:28.530Z,14.30
2017-07-22T19:20:56.800Z,15.03
2017-07-22T19:23:25.173Z,14.57
2017-07-22T19:25:53.505Z,11.43
2017-07-22T19:28:21.869Z,13.60
2017-07-22T19:30:50.172Z,20.80
2017-07-22T19:33:18.490Z,12.83
2017-07-22T19:35:47.001Z,18.70
2017-07-22T19:38:15.379Z,25.97
2017-07-22T19:40:44.560Z,15.07
2017-07-22T19:43:13.737Z,16.37
2017-07-22T19:45:42.837Z,20.30
2017-07-22T19:48:11.976Z,14.17
2017-07-22T19:50:40.499Z,14.83
2017-07-22T19:53:08.812Z,15.90
2017-07-22T19:55:37.257Z,15.57
2017-07-22T19:58:05.687Z,17.60
2017-07-22T20:00:33.990Z,20.17
2017-07-22T20:03:02.278Z,14.60
2017-07-22T20:05:31.347Z,15.30
2017-07-22T20:08:02.138Z,17.63
2017-07-22T20:10:30.401Z,11.50
2017-07-22T20:12:58.962Z,14.63
2017-07-22T20:15:27.246Z,13.80
2017-07-22T20:17:55.542Z,14.17
2017-07-22T20:20:23.821Z,20.43
2017-07-22T20:22:52.117Z,14.80
2017-07-22T20:25:20.386Z,18.50
2017-07-22T20:27:48.669Z,17.67
2017-07-22T20:30:17.686Z,18.53
2017-07-22T20:32:45.946Z,17.07
2017-07-22T20:35:14.261Z,15.80
2017-07-22T20:37:43.324Z,25.27
2017-07-22T20:40:12.345Z,19.43
2017-07-22T20:42:40.616Z,18.30
2017-07-22T20:45:08.914Z,14.30
2017-07-22T20:47:37.198Z,14.00
2017-07-22T20:50:06.241Z,16.03
2017-07-22T20:52:34.492Z,13.77
2017-07-22T20:55:02.745Z,19.40
2017-07-22T20:57:31.070Z,18.57
2017-07-22T20:59:59.328Z,18.30
2017-07-22T21:02:27.632Z,22.50
2017-07-22T21:04:55.921Z,21.33
2017-07-22T21:07:24.181Z,16.00
2017-07-22T21:09:52.436Z,20.47
2017-07-22T21:12:20.716Z,16.27
2017-07-22T21:14:49.733Z,15.13
2017-07-22T21:17:18.029Z,18.07
2017-07-22T21:19:46.316Z,17.87
2017-07-22T21:22:15.336Z,17.60
2017-07-22T21:24:43.589Z,20.93
2017-07-22T21:27:11.889Z,19.90
2017-07-22T21:29:40.137Z,20.90
2017-07-22T21:32:08.427Z,22.50
2017-07-22T21:34:37.503Z,24.10
2017-07-22T21:37:06.548Z,25.20
2017-07-22T21:39:34.837Z,24.40
2017-07-22T21:42:03.889Z,24.20
2017-07-22T21:44:32.184Z,21.80
2017-07-22T21:47:01.205Z,25.67
2017-07-22T21:49:29.506Z,27.37
2017-07-22T21:51:57.797Z,27.97
2017-07-22T21:54:26.050Z,26.83
2017-07-22T21:56:55.092Z,27.57
2017-07-22T21:59:23.341Z,26.97
2017-07-22T22:01:51.635Z,22.00
2017-07-22T22:04:20.722Z,23.40
2017-07-22T22:06:49.744Z,25.10
2017-07-22T22:09:18.102Z,27.23
2017-07-22T22:11:46.376Z,26.07
2017-07-22T22:14:14.666Z,27.00
2017-07-22T22:16:42.923Z,32.77
2017-07-22T22:19:11.223Z,35.17
2017-07-22T22:21:39.484Z,35.23
2017-07-22T22:24:07.771Z,33.43
2017-07-22T22:26:36.064Z,40.47
2017-07-22T22:29:04.345Z,38.67
2017-07-22T22:31:32.625Z,35.27
2017-07-22T22:34:00.930Z,32.87
2017-07-22T22:36:29.188Z,36.93
2017-07-22T22:38:57.481Z,39.17
2017-07-22T22:41:26.541Z,36.97
2017-07-22T22:43:55.188Z,36.37
2017-07-22T22:46:23.452Z,46.50
2017-07-22T22:48:51.731Z,43.70
2017-07-22T22:51:20.017Z,41.10
2017-07-22T22:53:48.311Z,40.63
2017-07-22T22:56:16.584Z,41.40
2017-07-22T22:58:44.883Z,43.17
2017-07-22T23:01:13.809Z,48.97
2017-07-22T23:03:42.077Z,42.50
2017-07-22T23:06:10.366Z,41.70
2017-07-22T23:08:38.624Z,43.00
2017-07-22T23:11:06.913Z,47.03
2017-07-22T23:13:35.165Z,44.07
2017-07-22T23:16:04.253Z,46.13
2017-07-22T23:18:32.553Z,56.47
2017-07-22T23:21:00.846Z,50.97
2017-07-22T23:23:29.873Z,52.70
2017-07-22T23:25:58.154Z,60.30
2017-07-22T23:28:26.445Z,48.17
2017-07-22T23:30:55.471Z,56.60
2017-07-22T23:33:23.754Z,53.23
2017-07-22T23:35:52.039Z,52.60
2017-07-22T23:38:20.291Z,51.83
2017-07-22T23:40:48.597Z,52.40
2017-07-22T23:43:16.882Z,55.30
2017-07-22T23:45:45.188Z,57.90
2017-07-22T23:48:14.266Z,57.73
2017-07-22T23:50:43.327Z,51.93
2017-07-22T23:53:11.584Z,54.67
2017-07-22T23:55:39.861Z,59.87
2017-07-22T23:58:08.146Z,62.40
